Time;durP1;ratioP1;P1;durP2;ratioP2;P2;SDS_P1;SDS_P2;PMS_P1;PMS_P2;Temp;Humidity;BMP_temperature;BMP_pressure;BME280_temperature;BME280_humidity;BME280_pressure;Samples;Min_cycle;Max_cycle;Signal;HPM_P1;HPM_P2
2022/06/21 00:01:18;;;;;;;1.42;1.33;;;11.50;99.90;;;;;;5012928;28;20242;-83
2022/06/21 00:03:46;;;;;;;2.70;1.10;;;11.40;99.90;;;;;;5023710;28;20562;-83
2022/06/21 00:06:19;;;;;;;1.63;1.13;;;11.30;99.90;;;;;;5035534;28;20265;-83
2022/06/21 00:08:45;;;;;;;3.85;1.42;;;;;;;;;;5019540;28;20210;-84
2022/06/21 00:11:32;;;;;;;1.67;1.27;;;11.30;99.90;;;;;;5013773;28;20182;-83
2022/06/21 00:13:58;;;;;;;2.97;1.50;;;;;;;;;;5030121;28;20460;-82
2022/06/21 00:16:26;;;;;;;1.85;1.17;;;11.30;99.90;;;;;;5035407;23;20226;-87
2022/06/21 00:18:52;;;;;;;2.35;1.20;;;;;;;;;;5044756;28;20666;-87
2022/06/21 00:21:19;;;;;;;2.28;1.35;;;11.20;99.90;;;;;;5043285;28;20689;-86
2022/06/21 00:23:45;;;;;;;2.35;1.58;;;11.20;99.90;;;;;;5046480;28;20217;-86
2022/06/21 00:26:12;;;;;;;1.20;1.10;;;11.10;99.90;;;;;;5042938;28;20185;-85
2022/06/21 00:28:39;;;;;;;2.90;1.60;;;11.10;99.90;;;;;;5043229;28;20192;-86
2022/06/21 00:31:13;;;;;;;1.50;1.40;;;11.00;99.90;;;;;;5045396;28;20186;-86
2022/06/21 00:33:39;;;;;;;3.20;1.95;;;11.00;99.90;;;;;;5042697;28;20916;-87
2022/06/21 00:36:30;;;;;;;4.37;1.70;;;11.00;99.90;;;;;;5042544;28;20177;-86
2022/06/21 00:38:59;;;;;;;2.63;1.80;;;11.00;99.90;;;;;;5040741;28;20231;-86
2022/06/21 00:41:47;;;;;;;2.10;2.00;;;10.90;99.90;;;;;;5041807;28;20197;-85
2022/06/21 00:44:19;;;;;;;1.70;1.50;;;10.90;99.90;;;;;;5043512;28;20208;-85
2022/06/21 00:47:18;;;;;;;2.65;1.75;;;10.90;99.90;;;;;;5063274;28;20245;-87
2022/06/21 00:49:57;;;;;;;2.53;1.60;;;10.80;99.90;;;;;;5045487;28;20223;-87
2022/06/21 00:52:33;;;;;;;2.05;1.58;;;10.80;99.90;;;;;;5040320;28;20209;-87
2022/06/21 00:55:11;;;;;;;2.83;1.90;;;10.80;99.90;;;;;;5050547;28;20188;-87
2022/06/21 00:57:49;;;;;;;2.05;1.70;;;10.70;99.90;;;;;;5050016;28;20235;-87
2022/06/21 01:00:31;;;;;;;2.05;1.95;;;10.70;99.90;;;;;;5051914;28;20188;-88
2022/06/21 01:02:59;;;;;;;4.90;2.15;;;10.60;99.90;;;;;;5046625;28;20205;-87
2022/06/21 01:05:28;;;;;;;1.85;1.75;;;10.60;99.90;;;;;;5050404;28;20185;-87
2022/06/21 01:07:57;;;;;;;3.75;1.88;;;10.60;99.90;;;;;;5049714;28;20263;-87
2022/06/21 01:10:24;;;;;;;2.45;1.70;;;11.80;99.90;;;;;;5057387;28;20174;-89
2022/06/21 01:12:59;;;;;;;2.47;1.60;;;10.60;99.90;;;;;;5061568;28;20632;-86
2022/06/21 01:15:30;;;;;;;2.30;2.05;;;10.60;99.90;;;;;;5050298;28;20179;-86
2022/06/21 01:18:00;;;;;;;2.55;2.08;;;10.60;99.90;;;;;;5062712;28;20204;-85
2022/06/21 01:20:28;;;;;;;4.47;1.85;;;10.60;99.90;;;;;;5050463;28;20173;-86
2022/06/21 01:23:18;;;;;;;1.88;1.75;;;10.60;99.90;;;;;;5052578;28;20309;-86
2022/06/21 01:25:43;;;;;;;3.95;1.95;;;10.60;99.90;;;;;;5049892;28;20216;-86
2022/06/21 01:28:11;;;;;;;10.47;1.83;;;10.50;99.90;;;;;;5045432;28;20224;-85
2022/06/21 01:30:37;;;;;;;3.45;1.98;;;;;;;;;;5063661;28;20177;-87
2022/06/21 01:33:03;;;;;;;4.50;3.10;;;10.40;99.90;;;;;;5050369;28;20213;-86
2022/06/21 01:35:46;;;;;;;2.20;2.00;;;10.40;99.90;;;;;;5056233;28;20440;-85
2022/06/21 01:38:20;;;;;;;4.80;2.45;;;10.40;99.90;;;;;;5047300;28;20235;-86
2022/06/21 01:40:51;;;;;;;4.32;2.10;;;10.30;99.90;;;;;;5046007;28;20184;-87
2022/06/21 01:43:21;;;;;;;2.35;1.85;;;10.30;99.90;;;;;;5050128;28;20277;-86
2022/06/21 01:45:54;;;;;;;2.80;2.20;;;10.30;99.90;;;;;;5063835;28;20272;-86
2022/06/21 01:48:38;;;;;;;1.98;1.80;;;10.30;99.90;;;;;;5046462;28;20273;-86
2022/06/21 01:51:08;;;;;;;2.25;2.05;;;10.30;99.90;;;;;;5050271;28;20744;-88
2022/06/21 01:53:36;;;;;;;2.53;2.28;;;10.20;99.90;;;;;;5050012;28;20200;-86
2022/06/21 01:56:13;;;;;;;3.58;2.03;;;10.20;99.90;;;;;;5047416;28;20234;-87
2022/06/21 01:58:44;;;;;;;3.95;2.10;;;10.20;99.90;;;;;;5052592;28;20201;-86
2022/06/21 02:01:42;;;;;;;2.30;2.10;;;10.20;99.90;;;;;;5052630;28;20239;-87
2022/06/21 02:04:10;;;;;;;7.95;2.30;;;10.20;99.90;;;;;;5048615;28;20173;-87
2022/06/21 02:06:41;;;;;;;3.15;2.60;;;10.10;99.90;;;;;;5048783;28;20182;-85
2022/06/21 02:09:29;;;;;;;3.90;2.13;;;10.10;99.90;;;;;;5059491;28;20173;-87
2022/06/21 02:12:03;;;;;;;7.28;2.80;;;10.20;99.90;;;;;;5052972;28;20196;-86
2022/06/21 02:14:31;;;;;;;5.25;2.45;;;10.10;99.90;;;;;;5046123;28;20258;-85
2022/06/21 02:16:59;;;;;;;2.40;2.20;;;10.20;99.90;;;;;;5046730;28;20232;-86
2022/06/21 02:19:34;;;;;;;3.30;2.20;;;10.10;99.90;;;;;;5047145;28;20193;-86
2022/06/21 02:22:00;;;;;;;3.08;2.70;;;10.00;99.90;;;;;;5047254;28;20236;-87
2022/06/21 02:24:28;;;;;;;4.13;3.10;;;10.10;99.90;;;;;;5043886;28;20178;-86
2022/06/21 02:26:55;;;;;;;2.67;2.22;;;10.10;99.90;;;;;;5055667;28;20185;-87
2022/06/21 02:29:21;;;;;;;2.10;2.00;;;10.20;99.90;;;;;;5045978;28;20228;-87
2022/06/21 02:31:47;;;;;;;4.03;2.63;;;;;;;;;;5044008;28;20197;-86
2022/06/21 02:34:24;;;;;;;2.93;2.63;;;10.10;99.90;;;;;;5051414;28;20189;-88
2022/06/21 02:36:57;;;;;;;2.85;1.90;;;10.00;99.90;;;;;;5051291;28;20439;-86
2022/06/21 02:39:26;;;;;;;2.20;2.00;;;12.70;99.90;;;;;;5049364;28;20177;-87
2022/06/21 02:42:17;;;;;;;6.88;2.20;;;9.80;99.90;;;;;;5061916;28;20270;-87
2022/06/21 02:44:52;;;;;;;3.28;2.20;;;9.80;99.90;;;;;;5046209;28;20181;-86
2022/06/21 02:47:23;;;;;;;18.77;2.55;;;9.80;99.90;;;;;;5062754;28;20180;-85
2022/06/21 02:49:52;;;;;;;5.25;2.40;;;9.80;99.90;;;;;;5049881;28;20575;-86
2022/06/21 02:52:23;;;;;;;2.70;2.50;;;9.70;99.90;;;;;;5052175;28;20185;-86
2022/06/21 02:54:59;;;;;;;3.40;2.20;;;9.70;99.90;;;;;;5047395;28;20189;-87
2022/06/21 02:57:41;;;;;;;6.03;3.03;;;9.70;99.90;;;;;;5053376;28;20579;-88
2022/06/21 03:00:12;;;;;;;2.70;2.40;;;9.70;99.90;;;;;;5049615;28;20185;-88
2022/06/21 03:02:38;;;;;;;5.10;2.58;;;9.70;99.90;;;;;;5051783;28;20236;-87
2022/06/21 03:05:10;;;;;;;3.50;2.37;;;9.70;99.90;;;;;;5053791;28;20598;-87
2022/06/21 03:07:42;;;;;;;5.13;2.70;;;9.70;99.90;;;;;;5048562;28;20422;-87
2022/06/21 03:10:16;;;;;;;4.82;2.45;;;9.70;99.90;;;;;;5045019;28;22828;-87
2022/06/21 03:12:42;;;;;;;4.15;2.20;;;9.70;99.90;;;;;;5063081;28;22314;-86
2022/06/21 03:15:11;;;;;;;3.93;2.53;;;9.80;99.90;;;;;;5053686;28;20189;-86
2022/06/21 03:17:52;;;;;;;3.05;2.75;;;9.80;99.90;;;;;;5049867;28;20546;-86
2022/06/21 03:20:19;;;;;;;5.32;2.90;;;9.80;99.90;;;;;;5044910;28;20185;-86
2022/06/21 03:22:46;;;;;;;2.90;2.25;;;10.10;99.90;;;;;;5045300;28;20302;-86
2022/06/21 03:25:27;;;;;;;5.05;2.97;;;10.10;99.90;;;;;;5058554;28;20209;-85
2022/06/21 03:27:59;;;;;;;3.25;2.53;;;10.10;99.90;;;;;;5051131;28;20192;-87
2022/06/21 03:30:30;;;;;;;6.20;3.55;;;10.00;99.90;;;;;;5060102;28;20182;-87
2022/06/21 03:32:58;;;;;;;3.35;2.70;;;10.10;99.90;;;;;;5044562;28;20198;-87
2022/06/21 03:35:26;;;;;;;3.80;2.63;;;10.30;99.90;;;;;;5045815;28;20253;-88
2022/06/21 03:37:52;;;;;;;5.70;2.80;;;10.50;99.90;;;;;;5054386;28;20295;-86
2022/06/21 03:43:21;;;;;;;3.92;2.95;;;10.50;99.90;;;;;;5052632;28;20699;-89
2022/06/21 03:45:50;;;;;;;4.10;2.25;;;10.60;99.90;;;;;;5045378;28;20197;-87
2022/06/21 03:48:33;;;;;;;5.22;2.67;;;10.80;99.90;;;;;;5059301;28;20181;-86
2022/06/21 03:51:05;;;;;;;3.60;2.83;;;10.80;99.90;;;;;;5054206;22;20244;-87
2022/06/21 03:53:35;;;;;;;2.50;2.30;;;10.80;99.90;;;;;;5007427;28;20283;-87
2022/06/21 03:56:08;;;;;;;2.50;2.20;;;10.90;99.90;;;;;;5006580;28;20313;-86
2022/06/21 03:58:54;;;;;;;3.55;2.65;;;11.00;99.90;;;;;;5013103;28;20240;-85
2022/06/21 04:01:33;;;;;;;6.53;2.50;;;11.30;99.90;;;;;;5003432;28;20186;-86
2022/06/21 04:03:59;;;;;;;5.25;2.47;;;;;;;;;;5010198;28;20675;-86
2022/06/21 04:06:34;;;;;;;2.43;2.07;;;11.70;99.90;;;;;;5021447;28;20201;-85
2022/06/21 04:09:32;;;;;;;2.65;2.42;;;11.70;99.90;;;;;;5012725;28;20444;-89
2022/06/21 04:12:11;;;;;;;6.25;2.50;;;11.90;99.90;;;;;;5004437;28;20275;-86
2022/06/21 04:15:18;;;;;;;2.05;1.70;;;12.20;99.90;;;;;;5008676;28;20598;-85
2022/06/21 04:17:48;;;;;;;5.47;2.97;;;14.40;99.90;;;;;;5017887;28;22424;-86
2022/06/21 04:20:28;;;;;;;3.05;2.40;;;14.40;99.90;;;;;;5002981;28;20217;-83
2022/06/21 04:23:00;;;;;;;6.30;2.47;;;16.70;99.90;;;;;;4998056;28;20186;-83
2022/06/21 04:25:34;;;;;;;2.87;1.73;;;20.10;99.90;;;;;;5020201;28;20529;-83
2022/06/21 04:28:09;;;;;;;4.47;2.53;;;20.20;99.90;;;;;;4999581;28;20455;-85
2022/06/21 04:31:02;;;;;;;4.10;1.73;;;22.10;99.90;;;;;;5011103;28;20447;-83
2022/06/21 04:33:33;;;;;;;3.37;1.50;;;25.00;99.90;;;;;;5005768;28;20452;-85
2022/06/21 04:36:07;;;;;;;3.43;2.00;;;24.90;99.90;;;;;;5006942;28;20471;-84
2022/06/21 04:38:41;;;;;;;2.63;1.90;;;26.40;97.40;;;;;;5005132;28;20490;-88
2022/06/21 04:41:12;;;;;;;2.83;2.00;;;28.00;82.40;;;;;;5010031;28;20448;-85
2022/06/21 04:43:46;;;;;;;4.70;1.90;;;28.10;82.80;;;;;;5018056;28;20437;-81
2022/06/21 04:46:11;;;;;;;3.43;1.70;;;;;;;;;;5029617;28;20455;-82
2022/06/21 04:48:51;;;;;;;2.97;2.10;;;29.70;74.70;;;;;;5012614;28;20448;-83
2022/06/21 04:51:27;;;;;;;3.47;1.97;;;30.20;66.30;;;;;;5004154;28;20456;-86
2022/06/21 04:54:02;;;;;;;1.77;1.53;;;30.60;64.40;;;;;;5013785;28;20445;-86
2022/06/21 04:56:45;;;;;;;2.57;1.87;;;29.10;61.50;;;;;;5008932;28;20453;-84
2022/06/21 04:59:19;;;;;;;3.17;1.87;;;28.70;63.60;;;;;;5002920;28;20486;-88
2022/06/21 05:01:45;;;;;;;3.67;2.53;;;;;;;;;;5008384;28;20469;-90
2022/06/21 05:04:18;;;;;;;3.17;1.80;;;29.50;62.60;;;;;;5007053;28;20470;-85
2022/06/21 05:06:45;;;;;;;2.20;1.70;;;30.50;63.50;;;;;;5005479;28;20445;-85
2022/06/21 05:09:14;;;;;;;2.47;2.07;;;31.90;59.50;;;;;;5008180;28;20434;-82
2022/06/21 05:11:40;;;;;;;4.30;2.33;;;29.90;57.30;;;;;;5006151;28;20444;-85
2022/06/21 05:14:17;;;;;;;3.90;2.50;;;27.70;60.00;;;;;;5016383;28;20444;-85
2022/06/21 05:16:43;;;;;;;4.70;2.17;;;;;;;;;;5014127;28;21002;-86
2022/06/21 05:19:16;;;;;;;3.30;2.80;;;24.40;72.10;;;;;;5011009;28;20969;-84
2022/06/21 05:22:24;;;;;;;6.97;2.70;;;26.50;75.20;;;;;;5011928;28;20444;-84
2022/06/21 05:24:50;;;;;;;4.00;2.10;;;23.30;77.90;;;;;;5003507;28;20437;-88
2022/06/21 05:27:32;;;;;;;3.03;2.37;;;24.20;80.40;;;;;;5006543;28;20469;-85
2022/06/21 05:30:10;;;;;;;2.50;2.10;;;25.40;76.40;;;;;;5001325;28;20447;-85
2022/06/21 05:32:59;;;;;;;3.60;2.60;;;26.70;74.30;;;;;;5009566;28;20440;-87
2022/06/21 05:35:30;;;;;;;3.87;2.63;;;29.40;67.40;;;;;;5010706;28;20491;-88
2022/06/21 05:38:02;;;;;;;4.77;2.80;;;31.60;62.70;;;;;;5017542;28;20462;-87
2022/06/21 05:40:46;;;;;;;2.57;2.37;;;33.10;57.30;;;;;;5019931;28;20492;-87
2022/06/21 05:43:17;;;;;;;7.73;2.57;;;33.40;54.00;;;;;;5015459;28;20928;-85
2022/06/21 05:45:49;;;;;;;3.83;3.50;;;33.60;53.70;;;;;;5022343;28;20447;-85
2022/06/21 05:48:22;;;;;;;5.93;4.17;;;33.30;53.00;;;;;;5044938;28;20448;-84
2022/06/21 05:50:48;;;;;;;6.60;4.93;;;;;;;;;;5015082;28;20548;-84
2022/06/21 05:53:21;;;;;;;5.17;4.87;;;32.90;51.90;;;;;;5012774;28;20436;-87
2022/06/21 05:55:47;;;;;;;5.80;4.83;;;;;;;;;;5024188;28;20635;-87
2022/06/21 05:58:27;;;;;;;4.87;4.43;;;32.10;51.40;;;;;;5014778;28;20465;-84
2022/06/21 06:01:20;;;;;;;6.07;4.50;;;32.40;53.20;;;;;;5002129;28;20437;-83
2022/06/21 06:04:11;;;;;;;5.30;4.80;;;33.50;51.90;;;;;;4998578;28;20443;-85
2022/06/21 06:06:40;;;;;;;5.17;4.77;;;34.40;47.30;;;;;;5012111;28;20472;-89
2022/06/21 06:09:19;;;;;;;5.17;4.80;;;34.50;45.60;;;;;;5012364;28;20438;-84
2022/06/21 06:12:00;;;;;;;5.63;4.60;;;34.70;45.50;;;;;;5014143;28;20449;-85
2022/06/21 06:14:44;;;;;;;7.93;5.43;;;34.80;45.40;;;;;;5035818;28;20444;-87
2022/06/21 06:17:33;;;;;;;6.43;5.97;;;34.60;44.20;;;;;;5019423;28;20499;-88
2022/06/21 06:20:09;;;;;;;6.70;5.03;;;32.90;44.40;;;;;;5013150;28;21417;-86
2022/06/21 06:22:35;;;;;;;5.93;5.43;;;;;;;;;;5016563;28;20527;-85
2022/06/21 06:25:16;;;;;;;7.13;4.90;;;29.00;48.00;;;;;;5045682;23;20497;-85
2022/06/21 06:27:55;;;;;;;4.47;2.60;;;26.20;52.00;;;;;;5027950;28;20461;-83
2022/06/21 06:30:31;;;;;;;5.50;2.57;;;25.40;55.60;;;;;;5036520;28;20463;-83
2022/06/21 06:33:20;;;;;;;6.30;3.00;;;25.40;56.00;;;;;;5032466;28;20886;-84
2022/06/21 06:35:47;;;;;;;8.20;2.57;;;24.00;57.20;;;;;;5029254;28;20467;-83
2022/06/21 06:38:14;;;;;;;4.30;2.70;;;23.30;60.00;;;;;;5042922;28;20456;-84
2022/06/21 06:40:46;;;;;;;7.60;2.23;;;22.80;63.70;;;;;;5034194;28;20426;-83
2022/06/21 06:43:37;;;;;;;4.43;2.80;;;22.90;65.00;;;;;;5030862;28;20436;-83
2022/06/21 06:46:04;;;;;;;6.80;2.90;;;22.90;65.10;;;;;;5038083;28;20465;-84
2022/06/21 06:48:36;;;;;;;3.60;2.93;;;23.70;66.60;;;;;;5041449;28;20513;-84
2022/06/21 06:51:14;;;;;;;7.97;2.50;;;23.70;67.40;;;;;;5040931;28;20546;-83
2022/06/21 06:53:48;;;;;;;6.63;3.10;;;25.10;67.10;;;;;;5036243;28;20444;-84
2022/06/21 06:56:28;;;;;;;7.87;2.50;;;29.40;58.30;;;;;;5043301;28;20825;-84
2022/06/21 06:59:00;;;;;;;2.90;2.00;;;31.50;53.50;;;;;;5033937;28;20473;-83
2022/06/21 07:01:41;;;;;;;4.37;1.90;;;31.80;50.70;;;;;;5037941;28;20432;-83
2022/06/21 07:04:13;;;;;;;5.40;2.60;;;32.70;49.00;;;;;;5043017;28;21231;-84
2022/06/21 07:06:52;;;;;;;5.53;2.50;;;32.50;47.00;;;;;;5048834;28;20446;-81
2022/06/21 07:09:21;;;;;;;9.93;3.00;;;33.10;47.20;;;;;;5049218;28;20483;-82
2022/06/21 07:12:06;;;;;;;5.97;3.03;;;32.70;46.70;;;;;;5037591;28;20448;-82
2022/06/21 07:14:35;;;;;;;5.23;3.53;;;33.00;45.50;;;;;;5034990;28;20490;-81
2022/06/21 07:17:18;;;;;;;4.80;4.40;;;32.80;45.20;;;;;;5039790;28;20449;-86
2022/06/21 07:19:45;;;;;;;7.07;3.97;;;;;;;;;;5046401;28;20518;-82
2022/06/21 07:22:20;;;;;;;9.73;3.80;;;33.70;45.80;;;;;;5041935;28;20489;-84
2022/06/21 07:25:12;;;;;;;5.20;4.70;;;34.70;42.90;;;;;;5047716;28;20480;-81
2022/06/21 07:27:41;;;;;;;6.47;4.80;;;33.70;43.30;;;;;;5052914;28;20471;-82
2022/06/21 07:30:13;;;;;;;4.83;4.23;;;33.00;44.20;;;;;;5044122;28;20444;-81
2022/06/21 07:33:04;;;;;;;4.90;4.50;;;31.00;44.20;;;;;;5042568;28;20466;-83
2022/06/21 07:35:34;;;;;;;6.33;3.50;;;29.90;47.70;;;;;;5044074;28;20461;-83
2022/06/21 07:38:12;;;;;;;2.67;2.47;;;28.00;50.00;;;;;;5039789;28;20459;-81
2022/06/21 07:40:47;;;;;;;18.27;3.50;;;27.30;51.30;;;;;;5043560;28;20465;-83
2022/06/21 07:43:30;;;;;;;6.33;2.80;;;26.60;52.60;;;;;;5042620;28;20435;-85
2022/06/21 07:46:00;;;;;;;3.97;2.50;;;26.00;54.10;;;;;;5039737;28;20452;-81
2022/06/21 07:48:44;;;;;;;3.10;2.20;;;24.80;55.40;;;;;;5038665;28;20440;-84
2022/06/21 07:51:30;;;;;;;5.77;2.50;;;24.80;56.00;;;;;;5043734;28;20435;-83
2022/06/21 07:54:06;;;;;;;8.33;2.93;;;24.30;59.60;;;;;;5037931;28;20439;-85
2022/06/21 07:56:33;;;;;;;6.60;2.23;;;24.30;60.40;;;;;;5039337;28;20443;-83
2022/06/21 07:59:30;;;;;;;8.20;2.60;;;23.80;59.60;;;;;;5036012;28;20520;-83
2022/06/21 08:07:50;;;;;;;4.80;2.40;;;22.40;65.10;;;;;;5040919;28;20521;-84
2022/06/21 08:10:34;;;;;;;4.17;2.67;;;22.70;65.10;;;;;;5052842;28;20532;-83
2022/06/21 08:13:00;;;;;;;8.70;3.00;;;;;;;;;;5041734;28;20448;-83
2022/06/21 08:15:31;;;;;;;5.67;2.53;;;25.20;59.40;;;;;;5038870;28;20504;-86
2022/06/21 08:18:04;;;;;;;3.57;3.20;;;26.70;56.90;;;;;;5038602;28;20477;-84
2022/06/21 08:20:40;;;;;;;4.63;2.97;;;29.00;56.60;;;;;;5042788;28;20466;-86
2022/06/21 08:23:21;;;;;;;5.73;2.80;;;31.50;51.00;;;;;;5036573;28;20469;-84
2022/06/21 08:26:13;;;;;;;12.37;2.60;;;32.20;47.10;;;;;;5031409;28;20545;-86
2022/06/21 08:28:50;;;;;;;9.73;2.50;;;32.40;47.10;;;;;;5035282;28;20444;-83
2022/06/21 08:31:27;;;;;;;4.87;2.97;;;32.50;46.40;;;;;;5037959;28;20466;-85
2022/06/21 08:34:13;;;;;;;5.50;2.63;;;32.50;49.20;;;;;;5037671;28;20485;-85
2022/06/21 08:36:49;;;;;;;8.00;4.47;;;32.70;46.30;;;;;;5036729;28;20865;-86
2022/06/21 08:39:15;;;;;;;6.00;5.23;;;;;;;;;;5048255;28;20448;-84
2022/06/21 08:42:18;;;;;;;4.97;4.47;;;32.40;47.90;;;;;;5050594;28;20443;-83
2022/06/21 08:48:37;;;;;;;5.73;5.20;;;33.60;45.60;;;;;;5039598;28;20456;-85
2022/06/21 08:51:37;;;;;;;9.30;5.00;;;33.30;43.80;;;;;;5033545;28;20434;-86
2022/06/21 08:54:32;;;;;;;38.27;8.17;;;29.90;47.10;;;;;;5028491;28;20442;-86
2022/06/21 08:57:16;;;;;;;10.60;3.30;;;28.50;50.00;;;;;;5028438;28;20483;-86
2022/06/21 09:00:03;;;;;;;4.60;3.17;;;27.50;51.80;;;;;;5034555;28;20463;-87
2022/06/21 09:02:47;;;;;;;4.17;2.77;;;26.70;53.60;;;;;;5025062;28;20455;-84
2022/06/21 09:05:58;;;;;;;11.37;3.20;;;26.20;55.00;;;;;;5029582;28;20462;-84
2022/06/21 09:08:53;;;;;;;5.67;3.10;;;26.00;55.70;;;;;;5023951;28;20440;-85
2022/06/21 09:11:25;;;;;;;5.10;2.70;;;26.40;58.00;;;;;;5034352;28;20536;-86
2022/06/21 09:14:20;;;;;;;4.90;2.80;;;27.80;55.50;;;;;;5030724;28;20474;-85
2022/06/21 09:16:59;;;;;;;5.53;2.70;;;27.50;54.70;;;;;;5029154;28;20435;-85
2022/06/21 09:19:53;;;;;;;6.10;3.00;;;26.40;55.00;;;;;;5032891;28;20431;-85
2022/06/21 09:22:48;;;;;;;7.07;3.17;;;26.00;57.10;;;;;;5040720;28;20504;-86
2022/06/21 09:25:23;;;;;;;8.33;3.47;;;26.10;56.80;;;;;;5035275;28;20900;-85
2022/06/21 09:27:59;;;;;;;6.87;3.20;;;25.80;56.80;;;;;;5036720;28;20435;-84
2022/06/21 09:31:14;;;;;;;6.57;3.00;;;26.10;57.80;;;;;;5034654;28;20474;-85
2022/06/21 09:33:48;;;;;;;10.70;3.10;;;26.90;56.40;;;;;;5027452;28;20445;-85
2022/06/21 09:36:44;;;;;;;4.37;2.83;;;28.20;55.70;;;;;;5037944;28;20460;-86
2022/06/21 09:39:51;;;;;;;6.17;3.20;;;28.60;55.80;;;;;;5046113;28;20465;-87
2022/06/21 09:42:24;;;;;;;10.80;2.93;;;30.00;54.10;;;;;;5050384;28;20436;-83
2022/06/21 09:45:31;;;;;;;4.30;3.13;;;30.40;51.50;;;;;;5037752;28;20452;-85
2022/06/21 09:48:04;;;;;;;3.43;2.40;;;30.90;50.30;;;;;;5049146;28;20459;-85
2022/06/21 09:50:38;;;;;;;8.20;2.83;;;29.60;50.70;;;;;;5036168;28;20427;-85
2022/06/21 09:53:04;;;;;;;4.77;2.97;;;29.60;52.10;;;;;;5043089;28;20489;-84
2022/06/21 09:55:55;;;;;;;3.63;2.80;;;29.60;54.60;;;;;;5046829;28;20486;-86
2022/06/21 09:58:32;;;;;;;5.43;2.70;;;30.00;58.70;;;;;;5037718;28;20494;-87
2022/06/21 10:01:29;;;;;;;4.23;3.20;;;30.10;51.20;;;;;;5036944;28;20433;-86
2022/06/21 10:04:15;;;;;;;2.20;2.00;;;30.50;51.70;;;;;;5035365;28;20432;-85
2022/06/21 10:07:19;;;;;;;9.63;3.00;;;31.60;48.80;;;;;;5051754;28;20459;-83
2022/06/21 10:10:06;;;;;;;4.00;2.80;;;31.50;49.80;;;;;;5041639;28;20515;-84
2022/06/21 10:12:48;;;;;;;4.57;3.60;;;31.30;49.40;;;;;;5038964;28;20511;-83
2022/06/21 10:15:47;;;;;;;9.77;3.93;;;30.80;49.70;;;;;;5048600;28;20466;-85
2022/06/21 10:18:13;;;;;;;5.27;3.10;;;;;;;;;;5046778;28;20534;-84
2022/06/21 10:20:48;;;;;;;6.07;3.27;;;30.50;49.00;;;;;;5050141;28;20428;-85
2022/06/21 10:23:35;;;;;;;6.20;3.17;;;30.10;54.90;;;;;;5043685;28;20179;-87
2022/06/21 10:26:43;;;;;;;10.27;3.20;;;29.70;51.50;;;;;;5041656;28;20465;-86
2022/06/21 10:29:44;;;;;;;5.10;2.70;;;29.60;51.10;;;;;;5037859;28;20818;-85
2022/06/21 10:32:44;;;;;;;3.23;2.63;;;30.10;50.20;;;;;;5034334;28;20523;-85
2022/06/21 10:35:30;;;;;;;7.67;2.90;;;30.00;51.00;;;;;;5034138;28;20572;-86
2022/06/21 10:38:17;;;;;;;6.33;3.30;;;29.70;53.40;;;;;;5033117;28;20477;-86
2022/06/21 10:41:11;;;;;;;3.40;2.60;;;28.50;55.60;;;;;;5037032;28;20481;-86
2022/06/21 10:44:04;;;;;;;9.57;2.93;;;27.60;55.10;;;;;;5040618;28;20505;-86
2022/06/21 10:46:36;;;;;;;3.90;3.43;;;26.90;57.60;;;;;;5035719;28;20441;-86
2022/06/21 10:49:11;;;;;;;8.57;2.93;;;26.80;57.20;;;;;;5034277;28;20520;-85
2022/06/21 10:51:58;;;;;;;5.53;2.97;;;26.70;58.10;;;;;;5033111;28;20466;-87
2022/06/21 10:54:48;;;;;;;9.80;3.27;;;26.70;57.80;;;;;;5030712;28;20462;-86
2022/06/21 10:57:38;;;;;;;4.77;2.93;;;26.80;58.00;;;;;;5038365;28;20552;-87
2022/06/21 11:03:14;;;;;;;8.87;3.63;;;;;;;;;;4990884;28;20425;-86
2022/06/21 11:05:55;;;;;;;8.07;3.40;;;26.70;58.60;;;;;;5022626;28;20965;-86
2022/06/21 11:08:45;;;;;;;6.40;2.77;;;26.80;61.20;;;;;;5034371;28;20504;-87
2022/06/21 11:11:11;;;;;;;7.30;3.07;;;;;;;;;;5039626;28;20499;-86
2022/06/21 11:13:47;;;;;;;4.87;3.10;;;26.90;60.30;;;;;;5051954;28;20481;-85
2022/06/21 11:16:39;;;;;;;5.10;3.10;;;26.70;58.70;;;;;;5052693;28;20442;-86
2022/06/21 11:19:35;;;;;;;5.03;2.80;;;26.80;60.90;;;;;;5042301;28;20489;-87
2022/06/21 11:22:25;;;;;;;9.00;3.70;;;26.50;61.90;;;;;;5026980;28;20538;-88
2022/06/21 11:25:24;;;;;;;4.83;3.10;;;26.20;60.70;;;;;;5032963;28;20464;-86
2022/06/21 11:28:19;;;;;;;4.30;3.50;;;26.50;60.40;;;;;;5035829;28;20467;-85
2022/06/21 11:31:21;;;;;;;6.30;2.70;;;26.70;61.20;;;;;;5034225;28;20570;-87
2022/06/21 11:33:49;;;;;;;3.47;3.13;;;;;;;;;;5026352;28;20438;-87
2022/06/21 11:36:23;;;;;;;5.50;3.43;;;27.30;65.20;;;;;;5034208;28;20537;-87
2022/06/21 11:39:22;;;;;;;5.90;3.27;;;27.10;60.80;;;;;;5033369;28;20981;-85
2022/06/21 11:42:06;;;;;;;5.70;2.90;;;27.00;63.50;;;;;;5036152;28;20425;-86
2022/06/21 11:44:32;;;;;;;5.63;3.27;;;;;;;;;;5035196;28;20453;-87
2022/06/21 11:47:08;;;;;;;6.47;3.43;;;27.50;61.00;;;;;;5032111;28;20447;-86
2022/06/21 11:50:10;;;;;;;9.57;3.33;;;27.50;60.00;;;;;;5030713;28;20560;-84
2022/06/21 11:53:13;;;;;;;9.73;4.60;;;27.30;63.00;;;;;;5032667;28;20453;-87
2022/06/21 11:56:08;;;;;;;3.67;3.10;;;27.30;66.70;;;;;;5032994;28;20766;-86
2022/06/21 11:58:56;;;;;;;8.77;3.90;;;27.30;63.40;;;;;;5033415;28;20817;-85
2022/06/21 12:01:25;;;;;;;5.17;3.33;;;27.50;63.50;;;;;;5029729;28;21656;-85
2022/06/21 12:03:55;;;;;;;5.47;3.17;;;27.70;64.30;;;;;;5029086;28;20462;-85
2022/06/21 12:07:09;;;;;;;6.03;4.00;;;28.10;63.00;;;;;;5030128;28;21563;-86
2022/06/21 12:09:57;;;;;;;6.83;3.53;;;28.00;62.60;;;;;;5025989;28;20535;-85
2022/06/21 12:12:38;;;;;;;8.57;3.43;;;28.00;62.50;;;;;;5033892;28;20446;-85
2022/06/21 12:15:04;;;;;;;5.87;3.33;;;;;;;;;;5030055;28;20511;-85
2022/06/21 12:17:52;;;;;;;8.83;3.50;;;28.30;63.40;;;;;;5029063;28;20456;-85
2022/06/21 12:20:37;;;;;;;5.80;3.00;;;28.60;61.70;;;;;;5026941;28;21042;-85
2022/06/21 12:23:23;;;;;;;13.10;3.97;;;28.20;62.20;;;;;;5028050;28;20944;-85
2022/06/21 12:25:49;;;;;;;3.80;3.23;;;;;;;;;;5025064;28;20477;-85
2022/06/21 12:28:18;;;;;;;4.60;3.40;;;28.10;61.70;;;;;;5027481;28;20436;-85
2022/06/21 12:30:44;;;;;;;4.30;3.83;;;;;;;;;;5027693;28;21255;-85
2022/06/21 12:33:14;;;;;;;14.70;4.10;;;27.60;65.10;;;;;;5031592;28;20440;-85
2022/06/21 12:36:17;;;;;;;9.77;4.20;;;27.70;65.10;;;;;;5025825;28;20477;-84
2022/06/21 12:38:55;;;;;;;12.20;4.20;;;28.10;68.70;;;;;;5023638;28;20600;-86
2022/06/21 12:41:46;;;;;;;6.50;3.63;;;28.80;65.50;;;;;;5065908;23;20499;-88
2022/06/21 12:44:34;;;;;;;9.20;4.20;;;28.60;65.50;;;;;;5025800;28;20432;-88
2022/06/21 12:47:21;;;;;;;3.87;3.27;;;28.10;63.50;;;;;;5030498;28;20455;-88
2022/06/21 12:50:19;;;;;;;5.33;3.77;;;27.80;68.40;;;;;;5034810;28;20450;-88
2022/06/21 12:52:47;;;;;;;6.40;3.93;;;;;;;;;;5023331;28;20480;-88
2022/06/21 12:55:24;;;;;;;9.63;4.50;;;28.10;65.10;;;;;;5014494;28;20433;-87
2022/06/21 12:58:17;;;;;;;5.60;3.77;;;28.20;64.50;;;;;;5006779;28;20456;-87
2022/06/21 13:00:52;;;;;;;3.93;3.43;;;28.10;64.30;;;;;;5007032;28;21098;-88
2022/06/21 13:03:51;;;;;;;11.90;3.97;;;28.20;64.10;;;;;;5013050;28;20444;-87
2022/06/21 13:06:17;;;;;;;24.03;5.10;;;;;;;;;;5006219;28;20452;-88
2022/06/21 13:09:13;;;;;;;8.97;3.93;;;28.20;68.70;;;;;;5004258;28;21478;-88
2022/06/21 13:12:26;;;;;;;10.00;4.00;;;28.60;64.20;;;;;;5015366;28;20469;-87
2022/06/21 13:15:18;;;;;;;5.67;3.87;;;28.50;65.60;;;;;;5011349;28;20424;-87
2022/06/21 13:18:31;;;;;;;7.10;5.50;;;28.60;64.50;;;;;;4998582;28;20595;-87
2022/06/21 13:20:57;;;;;;;11.47;4.67;;;;;;;;;;4941047;28;20486;-87
2022/06/21 13:23:49;;;;;;;4.63;3.90;;;28.00;74.40;;;;;;5008740;28;20436;-87
2022/06/21 13:26:48;;;;;;;4.50;4.00;;;28.10;70.80;;;;;;5024303;28;20532;-88
2022/06/21 13:29:28;;;;;;;5.90;4.63;;;28.30;66.60;;;;;;5008044;28;20441;-86
2022/06/21 13:32:00;;;;;;;6.77;4.70;;;28.50;66.60;;;;;;5017460;28;20526;-88
2022/06/21 13:34:26;;;;;;;8.30;4.67;;;;;;;;;;5009022;28;21374;-88
2022/06/21 13:36:54;;;;;;;12.00;5.20;;;28.40;66.70;;;;;;5006203;28;20523;-89
2022/06/21 13:39:20;;;;;;;10.33;4.37;;;;;;;;;;5008938;28;20630;-88
2022/06/21 13:44:50;;;;;;;7.67;3.47;;;28.90;66.20;;;;;;5013924;28;20436;-88
2022/06/21 13:47:41;;;;;;;7.83;4.03;;;28.90;64.90;;;;;;5010570;28;20449;-88
2022/06/21 13:50:24;;;;;;;4.13;3.63;;;28.80;64.80;;;;;;5006198;28;20441;-88
2022/06/21 13:53:22;;;;;;;5.77;3.93;;;29.00;67.00;;;;;;5006200;28;20503;-88
2022/06/21 13:56:01;;;;;;;8.63;4.30;;;29.50;66.80;;;;;;4997280;28;20950;-87
2022/06/21 13:58:37;;;;;;;6.50;4.20;;;30.00;64.30;;;;;;5009025;28;20955;-88
2022/06/21 14:01:05;;;;;;;4.53;4.13;;;;;;;;;;5001415;28;20470;-89
2022/06/21 14:04:22;;;;;;;5.83;3.40;;;29.80;63.00;;;;;;5019657;28;20444;-87
2022/06/21 14:07:13;;;;;;;7.13;4.30;;;29.90;63.80;;;;;;5005187;28;20447;-88
2022/06/21 14:10:01;;;;;;;8.63;4.00;;;29.50;63.80;;;;;;5012661;28;20479;-87
2022/06/21 14:12:48;;;;;;;5.93;4.17;;;29.70;74.30;;;;;;5021553;28;20455;-88
2022/06/21 14:15:41;;;;;;;6.90;4.47;;;29.30;65.20;;;;;;5017122;28;20457;-87